createdAt,value
2023-04-16T00:02:15.278Z,4.28
2023-04-16T00:04:42.807Z,4.70
2023-04-16T00:07:10.045Z,4.60
2023-04-16T00:09:37.278Z,4.30
2023-04-16T00:12:05.082Z,4.97
2023-04-16T00:14:32.729Z,4.70
2023-04-16T00:17:00.002Z,5.22
2023-04-16T00:19:27.291Z,5.07
2023-04-16T00:21:54.480Z,4.72
2023-04-16T00:24:40.056Z,5.38
2023-04-16T00:27:07.309Z,5.05
2023-04-16T00:29:35.014Z,4.82
2023-04-16T00:32:02.610Z,5.35
2023-04-16T00:34:30.406Z,5.28
2023-04-16T00:36:57.562Z,4.25
2023-04-16T00:39:24.713Z,4.93
2023-04-16T00:41:51.873Z,4.55
2023-04-16T00:44:19.116Z,4.70
2023-04-16T00:46:46.831Z,4.97
2023-04-16T00:49:14.971Z,4.65
2023-04-16T00:51:42.237Z,4.68
2023-04-16T00:54:09.592Z,4.88
2023-04-16T00:56:37.434Z,5.25
2023-04-16T00:59:04.784Z,4.43
2023-04-16T01:01:31.991Z,4.40
2023-04-16T01:03:59.254Z,4.90
2023-04-16T01:06:27.973Z,4.60
2023-04-16T01:08:55.505Z,4.72
2023-04-16T01:11:22.654Z,4.80
2023-04-16T01:13:49.929Z,4.80
2023-04-16T01:16:17.823Z,4.53
2023-04-16T01:18:45.182Z,5.00
2023-04-16T01:21:12.393Z,4.95
2023-04-16T01:23:39.825Z,4.85
2023-04-16T01:26:06.991Z,4.80
2023-04-16T01:28:34.166Z,5.32
2023-04-16T01:31:01.537Z,5.70
2023-04-16T01:33:45.126Z,5.15
2023-04-16T01:36:13.283Z,4.90
2023-04-16T01:38:40.479Z,5.38
2023-04-16T01:41:07.674Z,4.95
2023-04-16T01:43:35.903Z,5.82
2023-04-16T01:46:32.440Z,6.57
2023-04-16T01:49:00.014Z,6.22
2023-04-16T01:51:28.204Z,6.25
2023-04-16T01:53:55.684Z,6.18
2023-04-16T01:56:22.835Z,5.85
2023-04-16T01:58:50.357Z,5.65
2023-04-16T02:01:19.203Z,6.38
2023-04-16T02:03:48.122Z,5.60
2023-04-16T02:06:15.838Z,5.72
2023-04-16T02:08:43.373Z,5.35
2023-04-16T02:11:10.864Z,6.18
2023-04-16T02:13:38.777Z,5.97
2023-04-16T02:16:06.507Z,5.93
2023-04-16T02:18:59.613Z,5.05
2023-04-16T02:21:31.742Z,6.32
2023-04-16T02:23:58.968Z,5.80
2023-04-16T02:26:29.850Z,6.40
2023-04-16T02:29:02.511Z,5.85
2023-04-16T02:31:37.862Z,5.40
2023-04-16T02:34:06.131Z,5.05
2023-04-16T02:36:33.322Z,4.72
2023-04-16T02:39:00.539Z,5.90
2023-04-16T02:41:27.751Z,5.28
2023-04-16T02:43:55.053Z,5.55
2023-04-16T02:46:22.589Z,5.35
2023-04-16T02:48:50.734Z,5.95
2023-04-16T02:51:18.091Z,5.00
2023-04-16T02:53:46.186Z,4.85
2023-04-16T02:56:14.196Z,5.60
2023-04-16T02:58:41.478Z,6.13
2023-04-16T03:01:08.728Z,6.53
2023-04-16T03:03:36.250Z,6.10
2023-04-16T03:06:03.540Z,5.25
2023-04-16T03:08:30.693Z,6.30
2023-04-16T03:10:57.842Z,5.70
2023-04-16T03:13:25.044Z,4.88
2023-04-16T03:15:52.238Z,5.35
2023-04-16T03:18:19.411Z,5.22
2023-04-16T03:20:46.591Z,4.53
2023-04-16T03:23:13.813Z,4.40
2023-04-16T03:25:41.012Z,4.50
2023-04-16T03:28:09.815Z,4.47
2023-04-16T03:30:38.647Z,4.38
2023-04-16T03:33:06.838Z,3.67
2023-04-16T03:35:34.872Z,4.78
2023-04-16T03:38:03.169Z,5.13
2023-04-16T03:40:30.350Z,5.80
2023-04-16T03:42:59.237Z,4.15
2023-04-16T03:45:29.844Z,4.85
2023-04-16T03:47:57.395Z,3.95
2023-04-16T03:50:26.428Z,4.85
2023-04-16T03:52:53.677Z,4.90
2023-04-16T03:55:20.976Z,5.00
2023-04-16T03:57:48.603Z,5.03
2023-04-16T04:00:17.131Z,4.65
2023-04-16T04:03:03.272Z,4.82
2023-04-16T04:05:31.512Z,4.32
2023-04-16T04:07:59.729Z,4.90
2023-04-16T04:10:28.819Z,5.40
2023-04-16T04:12:56.032Z,4.47
2023-04-16T04:15:23.223Z,4.63
2023-04-16T04:17:50.454Z,5.13
2023-04-16T04:20:17.832Z,4.28
2023-04-16T04:22:47.960Z,4.50
2023-04-16T04:25:15.123Z,4.60
2023-04-16T04:27:42.386Z,6.07
2023-04-16T04:30:10.597Z,4.40
2023-04-16T04:32:38.855Z,3.90
2023-04-16T04:35:06.737Z,4.07
2023-04-16T04:37:34.384Z,4.82
2023-04-16T04:40:10.606Z,4.50
2023-04-16T04:42:38.552Z,3.90
2023-04-16T04:45:06.723Z,4.95
2023-04-16T04:47:34.887Z,4.60
2023-04-16T04:50:02.200Z,4.45
2023-04-16T04:52:31.647Z,4.55
2023-04-16T04:54:59.176Z,4.20
2023-04-16T04:57:26.547Z,4.60
2023-04-16T04:59:55.410Z,4.72
2023-04-16T05:02:23.369Z,4.38
2023-04-16T05:04:50.680Z,4.93
2023-04-16T05:07:17.870Z,7.13
2023-04-16T05:09:45.012Z,4.82
2023-04-16T05:12:12.258Z,4.07
2023-04-16T05:14:39.441Z,4.78
2023-04-16T05:17:08.138Z,4.13
2023-04-16T05:19:35.471Z,4.57
2023-04-16T05:22:02.922Z,4.60
2023-04-16T05:24:30.064Z,4.50
2023-04-16T05:26:57.466Z,5.43
2023-04-16T05:29:24.994Z,5.10
2023-04-16T05:31:53.221Z,4.85
2023-04-16T05:34:20.503Z,4.65
2023-04-16T05:36:47.658Z,4.80
2023-04-16T05:39:16.893Z,5.13
2023-04-16T05:41:44.201Z,5.80
2023-04-16T05:44:11.364Z,5.57
2023-04-16T05:46:38.566Z,5.57
2023-04-16T05:49:05.720Z,5.80
2023-04-16T05:51:33.248Z,5.80
2023-04-16T05:54:00.465Z,5.20
2023-04-16T05:56:27.846Z,5.82
2023-04-16T05:58:54.967Z,6.65
2023-04-16T06:01:22.967Z,5.40
2023-04-16T06:03:50.168Z,4.70
2023-04-16T06:06:17.445Z,4.68
2023-04-16T06:08:44.670Z,4.97
2023-04-16T06:11:12.375Z,6.43
2023-04-16T06:13:39.612Z,5.38
2023-04-16T06:16:06.978Z,5.30
2023-04-16T06:18:34.480Z,4.68
2023-04-16T06:21:01.715Z,4.88
2023-04-16T06:23:28.874Z,5.68
2023-04-16T06:25:56.171Z,5.03
2023-04-16T06:28:23.398Z,4.65
2023-04-16T06:30:50.677Z,4.30
2023-04-16T06:33:17.889Z,5.03
2023-04-16T06:35:45.025Z,6.18
2023-04-16T06:38:12.202Z,4.55
2023-04-16T06:40:39.457Z,4.93
2023-04-16T06:43:06.895Z,4.90
2023-04-16T06:45:34.769Z,3.75
2023-04-16T06:48:03.526Z,4.88
2023-04-16T06:50:31.123Z,4.97
2023-04-16T06:52:58.558Z,3.58
2023-04-16T06:55:25.707Z,5.53
2023-04-16T06:57:52.936Z,4.63
2023-04-16T07:00:20.151Z,4.97
2023-04-16T07:02:47.535Z,4.75
2023-04-16T07:05:14.847Z,3.67
2023-04-16T07:07:42.053Z,3.55
2023-04-16T07:10:09.683Z,3.63
2023-04-16T07:12:37.072Z,3.30
2023-04-16T07:15:04.759Z,3.47
2023-04-16T07:17:32.018Z,3.55
2023-04-16T07:19:59.412Z,3.30
2023-04-16T07:22:26.531Z,3.70
2023-04-16T07:24:53.713Z,4.53
2023-04-16T07:27:20.817Z,4.57
2023-04-16T07:29:49.750Z,4.28
2023-04-16T07:32:17.122Z,4.03
2023-04-16T07:34:44.342Z,3.92
2023-04-16T07:37:11.494Z,4.03
2023-04-16T07:39:38.661Z,3.78
2023-04-16T07:42:06.569Z,3.72
2023-04-16T07:44:33.780Z,3.67
2023-04-16T07:47:02.296Z,3.30
2023-04-16T07:49:31.731Z,4.20
2023-04-16T07:51:58.923Z,3.35
2023-04-16T07:54:27.759Z,4.05
2023-04-16T07:56:56.156Z,4.25
2023-04-16T07:59:24.301Z,4.15
2023-04-16T08:01:54.111Z,4.40
2023-04-16T08:04:25.675Z,4.93
2023-04-16T08:06:54.411Z,3.72
2023-04-16T08:09:24.102Z,3.60
2023-04-16T08:11:51.452Z,3.72
2023-04-16T08:14:18.711Z,3.55
2023-04-16T08:16:45.968Z,3.40
2023-04-16T08:19:13.390Z,4.38
2023-04-16T08:21:40.830Z,3.80
2023-04-16T08:24:08.478Z,3.90
2023-04-16T08:26:35.758Z,3.92
2023-04-16T08:29:03.048Z,4.63
2023-04-16T08:31:30.646Z,5.60
2023-04-16T08:33:57.847Z,4.35
2023-04-16T08:36:24.997Z,4.57
2023-04-16T08:38:52.463Z,4.00
2023-04-16T08:41:22.440Z,4.22
2023-04-16T08:43:52.014Z,4.00
2023-04-16T08:46:22.884Z,3.90
2023-04-16T08:48:55.800Z,5.05
2023-04-16T08:51:24.272Z,3.97
2023-04-16T08:54:03.036Z,3.90
2023-04-16T08:56:32.167Z,3.70
2023-04-16T08:59:02.113Z,5.78
2023-04-16T09:01:29.852Z,4.13
2023-04-16T09:03:57.478Z,3.85
2023-04-16T09:06:26.435Z,4.80
2023-04-16T09:08:54.197Z,3.83
2023-04-16T09:11:21.961Z,3.70
2023-04-16T09:13:49.164Z,3.35
2023-04-16T09:16:17.057Z,4.05
2023-04-16T09:18:44.377Z,3.83
2023-04-16T09:21:11.513Z,3.92
2023-04-16T09:23:40.182Z,4.88
2023-04-16T09:26:07.458Z,3.13
2023-04-16T09:28:42.831Z,3.30
2023-04-16T09:31:18.181Z,4.20
2023-04-16T09:34:05.626Z,3.85
2023-04-16T09:36:34.098Z,3.75
2023-04-16T09:39:01.984Z,2.80
2023-04-16T09:41:31.350Z,3.88
2023-04-16T09:44:01.988Z,4.88
2023-04-16T09:46:35.285Z,3.22
2023-04-16T09:49:10.093Z,3.50
2023-04-16T09:51:38.457Z,3.50
2023-04-16T09:54:06.787Z,3.20
2023-04-16T09:56:39.329Z,3.55
2023-04-16T09:59:06.558Z,3.17
2023-04-16T10:01:33.828Z,3.15
2023-04-16T10:04:01.115Z,3.08
2023-04-16T10:06:29.547Z,3.38
2023-04-16T10:08:57.222Z,3.33
2023-04-16T10:11:25.963Z,3.95
2023-04-16T10:13:53.404Z,3.30
2023-04-16T10:16:22.425Z,3.22
2023-04-16T10:18:49.747Z,3.55
2023-04-16T10:21:17.242Z,4.00
2023-04-16T10:23:44.518Z,3.33
2023-04-16T10:26:11.840Z,3.42
2023-04-16T10:28:39.410Z,4.25
2023-04-16T10:31:09.669Z,3.67
2023-04-16T10:33:40.908Z,3.92
2023-04-16T10:36:13.554Z,3.90
2023-04-16T10:38:48.461Z,4.18
2023-04-16T10:41:16.010Z,4.53
2023-04-16T10:43:48.118Z,4.45
2023-04-16T10:46:19.247Z,5.13
2023-04-16T10:48:50.439Z,4.20
2023-04-16T10:51:34.939Z,5.78
2023-04-16T10:54:08.339Z,4.53
2023-04-16T10:56:36.920Z,5.50
2023-04-16T10:59:23.973Z,3.00
2023-04-16T11:01:54.044Z,4.68
2023-04-16T11:04:21.656Z,4.15
2023-04-16T11:07:21.048Z,3.60
2023-04-16T11:10:12.892Z,3.45
2023-04-16T11:12:47.144Z,2.85
2023-04-16T11:15:16.347Z,4.38
2023-04-16T11:17:45.849Z,4.47
2023-04-16T11:20:23.684Z,4.85
2023-04-16T11:22:55.528Z,3.90
2023-04-16T11:25:25.596Z,4.25
2023-04-16T11:27:53.552Z,4.05
2023-04-16T11:30:33.374Z,4.10
2023-04-16T11:33:18.879Z,3.60
2023-04-16T11:35:58.016Z,3.78
2023-04-16T11:38:38.422Z,4.32
2023-04-16T11:41:05.536Z,6.00
2023-04-16T11:43:32.732Z,5.45
2023-04-16T11:46:12.860Z,5.07
2023-04-16T11:48:51.410Z,3.95
2023-04-16T11:51:19.804Z,4.03
2023-04-16T11:53:52.913Z,3.92
2023-04-16T11:56:30.781Z,4.75
2023-04-16T11:59:11.968Z,3.70
2023-04-16T12:01:41.347Z,3.53
2023-04-16T12:04:09.180Z,4.00
2023-04-16T12:06:36.837Z,4.00
2023-04-16T12:09:25.800Z,3.83
2023-04-16T12:11:53.827Z,4.18
2023-04-16T12:14:21.636Z,4.20
2023-04-16T12:16:49.177Z,3.90
2023-04-16T12:19:16.516Z,4.35
2023-04-16T12:21:46.070Z,3.72
2023-04-16T12:24:15.922Z,4.68
2023-04-16T12:26:45.433Z,4.50
2023-04-16T12:29:24.238Z,4.22
2023-04-16T12:31:52.898Z,4.47
2023-04-16T12:34:21.631Z,4.35
2023-04-16T12:37:12.406Z,3.80
2023-04-16T12:39:39.638Z,7.22
2023-04-16T12:42:09.949Z,5.30
2023-04-16T12:44:37.128Z,5.20
2023-04-16T12:47:05.689Z,4.70
2023-04-16T12:49:32.835Z,4.22
2023-04-16T12:52:00.031Z,4.38
2023-04-16T12:54:31.324Z,4.22
2023-04-16T12:56:58.507Z,4.40
2023-04-16T12:59:25.627Z,4.28
2023-04-16T13:01:52.901Z,4.80
2023-04-16T13:04:20.773Z,4.45
2023-04-16T13:06:49.209Z,4.75
2023-04-16T13:09:16.534Z,4.50
2023-04-16T13:11:43.750Z,4.20
2023-04-16T13:14:10.886Z,4.63
2023-04-16T13:16:38.958Z,5.22
2023-04-16T13:19:06.214Z,4.13
2023-04-16T13:21:34.399Z,5.03
2023-04-16T13:24:01.599Z,5.95
2023-04-16T13:26:28.811Z,4.50
2023-04-16T13:28:56.058Z,5.07
2023-04-16T13:31:23.344Z,5.28
2023-04-16T13:33:50.778Z,4.70
2023-04-16T13:36:17.914Z,4.53
2023-04-16T13:38:45.859Z,6.15
2023-04-16T13:41:13.118Z,4.85
2023-04-16T13:43:40.470Z,4.68
2023-04-16T13:46:07.869Z,3.80
2023-04-16T13:48:35.151Z,4.28
2023-04-16T13:51:03.027Z,4.00
2023-04-16T13:53:30.171Z,3.30
2023-04-16T13:55:57.411Z,5.60
2023-04-16T13:58:24.866Z,4.20
2023-04-16T14:00:52.404Z,4.68
2023-04-16T14:03:19.747Z,4.00
2023-04-16T14:05:47.151Z,3.75
2023-04-16T14:08:17.054Z,3.60
2023-04-16T14:10:44.225Z,3.25
2023-04-16T14:13:12.432Z,3.35
2023-04-16T14:15:39.987Z,3.30
2023-04-16T14:18:07.290Z,2.88
2023-04-16T14:20:34.515Z,3.20
2023-04-16T14:23:02.062Z,3.95
2023-04-16T14:25:29.264Z,4.75
2023-04-16T14:27:56.449Z,3.58
2023-04-16T14:30:23.585Z,3.20
2023-04-16T14:32:51.204Z,3.97
2023-04-16T14:35:18.511Z,4.13
2023-04-16T14:37:46.680Z,3.33
2023-04-16T14:40:14.197Z,4.03
2023-04-16T14:42:41.483Z,4.28
2023-04-16T14:45:09.204Z,4.50
2023-04-16T14:47:37.843Z,3.40
2023-04-16T14:50:06.380Z,3.38
2023-04-16T14:52:33.484Z,3.95
2023-04-16T14:55:00.852Z,7.35
2023-04-16T14:57:27.996Z,5.07
2023-04-16T14:59:55.198Z,4.82
2023-04-16T15:02:22.677Z,4.13
2023-04-16T15:04:50.050Z,3.90
2023-04-16T15:07:17.242Z,3.97
2023-04-16T15:09:44.476Z,3.60
2023-04-16T15:12:11.679Z,4.03
2023-04-16T15:14:38.971Z,4.30
2023-04-16T15:17:06.222Z,3.50
2023-04-16T15:19:33.489Z,3.28
2023-04-16T15:22:00.614Z,3.58
2023-04-16T15:24:27.795Z,3.10
2023-04-16T15:26:54.927Z,3.33
2023-04-16T15:29:22.069Z,2.97
2023-04-16T15:31:49.262Z,2.70
2023-04-16T15:34:16.440Z,3.17
2023-04-16T15:36:43.615Z,3.25
2023-04-16T15:39:11.201Z,3.22
2023-04-16T15:41:50.192Z,3.10
2023-04-16T15:44:26.818Z,3.60
2023-04-16T15:46:54.022Z,6.05
2023-04-16T15:49:21.256Z,4.07
2023-04-16T15:51:48.502Z,3.80
2023-04-16T15:54:15.705Z,3.90
2023-04-16T15:56:42.986Z,4.20
2023-04-16T15:59:10.524Z,4.25
2023-04-16T16:01:37.915Z,4.57
2023-04-16T16:04:08.201Z,3.80
2023-04-16T16:06:38.207Z,3.95
2023-04-16T16:09:05.513Z,3.60
2023-04-16T16:11:32.793Z,5.10
2023-04-16T16:14:03.020Z,4.43
2023-04-16T16:16:30.873Z,4.85
2023-04-16T16:18:58.058Z,5.90
2023-04-16T16:21:25.183Z,6.13
2023-04-16T16:23:52.333Z,5.60
2023-04-16T16:26:20.679Z,7.22
2023-04-16T16:28:48.126Z,6.50
2023-04-16T16:31:15.283Z,8.27
2023-04-16T16:33:42.476Z,5.75
2023-04-16T16:36:12.762Z,5.95
2023-04-16T16:38:41.188Z,6.05
2023-04-16T16:41:08.546Z,6.22
2023-04-16T16:44:03.859Z,5.78
2023-04-16T16:46:31.131Z,6.18
2023-04-16T16:48:58.605Z,6.35
2023-04-16T16:51:26.439Z,6.57
2023-04-16T16:53:53.732Z,6.20
2023-04-16T16:56:20.879Z,6.82
2023-04-16T16:58:48.092Z,7.00
2023-04-16T17:01:15.609Z,7.28
2023-04-16T17:03:43.004Z,6.68
2023-04-16T17:06:10.331Z,6.82
2023-04-16T17:08:37.562Z,6.07
2023-04-16T17:11:04.942Z,6.65
2023-04-16T17:13:32.825Z,6.85
2023-04-16T17:16:00.208Z,6.65
2023-04-16T17:18:28.333Z,7.45
2023-04-16T17:20:55.476Z,8.48
2023-04-16T17:23:22.686Z,7.70
2023-04-16T17:25:50.253Z,7.57
2023-04-16T17:28:17.599Z,8.18
2023-04-16T17:30:45.759Z,8.98
2023-04-16T17:33:13.042Z,9.32
2023-04-16T17:35:41.105Z,9.20
2023-04-16T17:38:08.227Z,8.38
2023-04-16T17:40:35.475Z,8.10
2023-04-16T17:43:02.752Z,8.15
2023-04-16T17:45:29.950Z,9.30
2023-04-16T17:47:57.084Z,8.85
2023-04-16T17:50:24.416Z,9.45
2023-04-16T17:52:51.757Z,10.93
2023-04-16T17:55:18.955Z,8.52
2023-04-16T17:57:46.670Z,8.77
2023-04-16T18:00:14.816Z,9.13
2023-04-16T18:02:42.273Z,8.10
2023-04-16T18:05:09.881Z,8.90
2023-04-16T18:07:37.763Z,8.85
2023-04-16T18:10:06.378Z,8.82
2023-04-16T18:12:33.771Z,8.63
2023-04-16T18:15:01.001Z,8.32
2023-04-16T18:17:29.094Z,7.70
2023-04-16T18:19:56.717Z,8.02
2023-04-16T18:22:26.247Z,8.27
2023-04-16T18:24:55.150Z,8.13
2023-04-16T18:27:23.230Z,8.20
2023-04-16T18:29:51.386Z,8.85
2023-04-16T18:32:18.741Z,7.78
2023-04-16T18:34:46.066Z,8.48
2023-04-16T18:37:13.246Z,8.13
2023-04-16T18:39:40.407Z,8.00
2023-04-16T18:42:07.974Z,8.20
2023-04-16T18:44:35.228Z,7.57
2023-04-16T18:47:02.607Z,8.40
2023-04-16T18:49:29.924Z,11.95
2023-04-16T18:51:57.098Z,11.45
2023-04-16T18:54:24.353Z,10.43
2023-04-16T18:56:51.570Z,8.52
2023-04-16T18:59:18.693Z,8.82
2023-04-16T19:01:45.872Z,10.30
2023-04-16T19:04:13.032Z,9.82
2023-04-16T19:06:40.290Z,9.10
2023-04-16T19:09:09.459Z,10.18
2023-04-16T19:14:05.931Z,9.57
2023-04-16T19:16:33.315Z,9.55
2023-04-16T19:19:01.098Z,11.18
2023-04-16T19:21:28.445Z,11.13
2023-04-16T19:23:55.778Z,10.48
2023-04-16T19:26:22.972Z,10.32
2023-04-16T19:28:50.136Z,11.23
2023-04-16T19:31:17.504Z,9.60
2023-04-16T19:33:44.617Z,9.57
2023-04-16T19:36:11.775Z,8.75
2023-04-16T19:38:38.868Z,9.60
2023-04-16T19:41:06.190Z,9.75
2023-04-16T19:43:33.397Z,8.57
2023-04-16T19:46:00.558Z,9.15
2023-04-16T19:48:27.778Z,8.73
2023-04-16T19:50:54.890Z,10.55
2023-04-16T19:53:21.990Z,9.85
2023-04-16T19:55:49.344Z,8.65
2023-04-16T19:58:16.475Z,9.20
2023-04-16T20:00:43.822Z,8.88
2023-04-16T20:03:11.049Z,8.32
2023-04-16T20:05:38.369Z,7.93
2023-04-16T20:08:05.935Z,8.25
2023-04-16T20:10:33.115Z,7.70
2023-04-16T20:13:00.504Z,7.75
2023-04-16T20:15:27.736Z,8.32
2023-04-16T20:17:56.374Z,8.13
2023-04-16T20:20:23.810Z,8.02
2023-04-16T20:22:51.136Z,7.15
2023-04-16T20:25:21.751Z,8.00
2023-04-16T20:27:48.933Z,6.93
2023-04-16T20:30:16.459Z,7.93
2023-04-16T20:32:43.705Z,6.70
2023-04-16T20:35:11.633Z,6.93
2023-04-16T20:37:39.268Z,6.85
2023-04-16T20:40:08.950Z,7.32
2023-04-16T20:42:36.302Z,6.82
2023-04-16T20:45:03.640Z,7.65
2023-04-16T20:47:34.842Z,6.95
2023-04-16T20:50:02.988Z,7.20
2023-04-16T20:52:31.278Z,8.13
2023-04-16T20:54:58.540Z,6.82
2023-04-16T20:57:28.126Z,8.50
2023-04-16T20:59:56.521Z,10.07
2023-04-16T21:02:24.436Z,9.32
2023-04-16T21:04:52.245Z,7.88
2023-04-16T21:07:19.565Z,7.75
2023-04-16T21:09:46.749Z,6.82
2023-04-16T21:12:13.935Z,6.40
2023-04-16T21:14:41.509Z,7.03
2023-04-16T21:17:08.635Z,6.93
2023-04-16T21:19:35.748Z,6.50
2023-04-16T21:22:02.969Z,7.18
2023-04-16T21:24:32.962Z,7.05
2023-04-16T21:27:00.167Z,6.57
2023-04-16T21:29:27.503Z,6.97
2023-04-16T21:31:55.112Z,6.65
2023-04-16T21:34:22.377Z,6.88
2023-04-16T21:36:49.542Z,7.80
2023-04-16T21:39:20.221Z,7.18
2023-04-16T21:41:50.462Z,6.25
2023-04-16T21:44:17.572Z,6.35
2023-04-16T21:46:44.721Z,6.00
2023-04-16T21:49:12.112Z,7.63
2023-04-16T21:51:43.155Z,6.85
2023-04-16T21:54:10.441Z,6.38
2023-04-16T21:56:37.586Z,7.43
2023-04-16T21:59:04.742Z,6.50
2023-04-16T22:01:32.105Z,6.57
2023-04-16T22:03:59.361Z,6.90
2023-04-16T22:06:29.582Z,6.72
2023-04-16T22:08:58.944Z,6.90
2023-04-16T22:11:26.088Z,6.93
2023-04-16T22:13:53.803Z,7.57
2023-04-16T22:16:20.967Z,7.15
2023-04-16T22:18:48.195Z,6.95
2023-04-16T22:21:15.561Z,7.10
2023-04-16T22:23:42.735Z,7.32
2023-04-16T22:26:10.192Z,7.18
2023-04-16T22:28:37.310Z,7.07
2023-04-16T22:31:04.656Z,7.82
2023-04-16T22:33:31.886Z,6.97
2023-04-16T22:36:00.001Z,7.45
2023-04-16T22:38:27.157Z,7.95
2023-04-16T22:40:54.334Z,7.57
2023-04-16T22:43:21.492Z,7.72
2023-04-16T22:45:48.859Z,6.90
2023-04-16T22:48:16.488Z,7.10
2023-04-16T22:50:48.719Z,7.32
2023-04-16T22:53:16.212Z,8.25
2023-04-16T22:55:43.385Z,7.57
2023-04-16T22:58:10.567Z,7.57
2023-04-16T23:00:37.701Z,8.52
2023-04-16T23:03:05.170Z,7.85
2023-04-16T23:05:32.529Z,8.48
2023-04-16T23:07:59.625Z,7.65
2023-04-16T23:10:27.537Z,7.65
2023-04-16T23:12:54.654Z,7.43
2023-04-16T23:15:21.828Z,8.18
2023-04-16T23:17:49.426Z,7.40
2023-04-16T23:20:16.833Z,7.50
2023-04-16T23:22:43.953Z,7.65
2023-04-16T23:25:11.100Z,7.57
2023-04-16T23:27:38.449Z,7.18
2023-04-16T23:30:06.852Z,8.27
2023-04-16T23:32:34.682Z,9.02
2023-04-16T23:35:01.898Z,8.25
2023-04-16T23:37:31.641Z,8.00
2023-04-16T23:39:58.936Z,7.45
2023-04-16T23:42:26.069Z,7.18
2023-04-16T23:44:53.208Z,7.25
2023-04-16T23:47:20.385Z,7.60
2023-04-16T23:49:47.570Z,7.82
2023-04-16T23:52:14.875Z,7.70
2023-04-16T23:54:42.031Z,8.30
2023-04-16T23:57:09.330Z,10.27
2023-04-16T23:59:36.496Z,10.52
